Time;durP1;ratioP1;P1;durP2;ratioP2;P2;SDS_P1;SDS_P2;PMS_P1;PMS_P2;Temp;Humidity;BMP_temperature;BMP_pressure;BME280_temperature;BME280_humidity;BME280_pressure;Samples;Min_cycle;Max_cycle;Signal;HPM_P1;HPM_P2
2023/12/13 00:00:19;;;;;;;1.13;0.95;;;;;;;4.29;91.61;98543.41;5079484;28;20029;-77
2023/12/13 00:02:48;;;;;;;2.05;1.95;;;;;;;4.35;91.59;98551.00;5096676;28;20047;-77
2023/12/13 00:05:18;;;;;;;1.33;1.25;;;;;;;4.37;91.59;98544.28;5096875;28;20040;-77
2023/12/13 00:07:47;;;;;;;1.42;1.33;;;;;;;4.38;91.28;98543.47;5096822;28;20054;-76
2023/12/13 00:10:16;;;;;;;1.27;1.17;;;;;;;4.39;91.21;98542.63;5095698;28;20115;-76
2023/12/13 00:12:45;;;;;;;0.98;0.95;;;;;;;4.40;91.18;98537.59;5096883;28;20486;-76
2023/12/13 00:15:15;;;;;;;2.28;2.08;;;;;;;4.40;91.59;98537.59;5095616;28;20101;-76
2023/12/13 00:17:44;;;;;;;1.33;1.23;;;;;;;4.43;91.39;98531.69;5096794;28;20389;-76
2023/12/13 00:20:13;;;;;;;1.48;1.38;;;;;;;4.42;91.44;98520.75;5096422;28;20276;-76
2023/12/13 00:22:43;;;;;;;1.45;1.35;;;;;;;4.39;91.45;98512.34;5096252;28;20059;-76
2023/12/13 00:25:12;;;;;;;1.15;1.08;;;;;;;4.41;91.71;98514.03;5079011;28;20142;-76
2023/12/13 00:27:42;;;;;;;1.20;1.10;;;;;;;4.44;91.20;98498.06;5096818;28;20048;-76
2023/12/13 00:30:11;;;;;;;0.75;0.75;;;;;;;4.46;91.57;98496.38;5096240;28;20044;-76
2023/12/13 00:32:40;;;;;;;2.55;1.58;;;;;;;4.48;91.44;98498.06;5096379;28;20032;-76
2023/12/13 00:35:10;;;;;;;2.20;1.70;;;;;;;4.47;92.10;98492.97;5096401;28;20028;-77
2023/12/13 00:37:39;;;;;;;5.82;2.42;;;;;;;4.51;91.61;98499.75;5094609;28;20050;-76
2023/12/13 00:40:11;;;;;;;1.00;0.98;;;;;;;4.50;91.92;98480.38;5095093;28;20040;-76
2023/12/13 00:42:40;;;;;;;0.38;0.38;;;;;;;4.50;91.92;98470.28;5096540;28;20048;-76
2023/12/13 00:45:09;;;;;;;2.53;2.10;;;;;;;4.56;91.78;98475.34;5096422;28;20070;-76
2023/12/13 00:47:38;;;;;;;;;;;;;;;4.56;91.91;98477.84;5096357;28;20052;-77
2023/12/13 00:50:09;;;;;;;0.65;0.65;;;;;;;4.57;91.79;98474.50;5095899;28;20328;-75
2023/12/13 00:52:38;;;;;;;0.98;0.98;;;;;;;4.43;91.56;98461.00;5095889;28;20072;-75
2023/12/13 00:55:09;;;;;;;1.23;1.00;;;;;;;4.60;92.12;98474.53;5096092;28;20498;-75
2023/12/13 00:57:38;;;;;;;2.70;1.67;;;;;;;4.59;92.15;98468.63;5096321;28;20130;-73
2023/12/13 01:00:09;;;;;;;1.30;1.20;;;;;;;4.61;92.35;98471.13;5094961;28;20378;-74
2023/12/13 01:03:32;;;;;;;0.40;0.40;;;;;;;4.56;92.58;98455.13;5094706;28;20036;-74
2023/12/13 01:06:01;;;;;;;0.88;0.85;;;;;;;4.63;92.41;98469.50;5095947;28;20040;-74
2023/12/13 01:08:30;;;;;;;2.95;1.25;;;;;;;4.34;92.46;98420.56;5095635;28;20390;-73
2023/12/13 01:11:00;;;;;;;1.23;1.10;;;;;;;4.65;92.75;98467.81;5094581;28;20040;-74
2023/12/13 01:13:29;;;;;;;1.52;1.20;;;;;;;4.63;92.72;98459.38;5096129;28;20085;-74
2023/12/13 01:15:58;;;;;;;0.80;0.80;;;;;;;4.67;92.85;98461.06;5095668;28;20040;-73
2023/12/13 01:18:26;;;;;;;0.50;0.50;;;;;;;4.62;92.79;98450.09;5094479;28;20563;-73
2023/12/13 01:20:56;;;;;;;0.63;0.63;;;;;;;4.71;93.11;98463.59;5095903;28;20036;-73
2023/12/13 01:23:24;;;;;;;2.08;1.80;;;;;;;4.75;93.23;98464.47;5094181;28;20521;-73
2023/12/13 01:25:53;;;;;;;0.50;0.50;;;;;;;4.76;93.52;98453.50;5095370;28;20047;-72
2023/12/13 01:28:24;;;;;;;2.15;1.88;;;;;;;4.80;93.32;98452.66;5095600;28;20032;-72
2023/12/13 01:30:53;;;;;;;2.25;2.05;;;;;;;4.79;93.46;98445.94;5095241;28;20130;-72
2023/12/13 01:33:22;;;;;;;0.57;0.57;;;;;;;4.73;93.61;98439.19;5095365;28;20512;-72
2023/12/13 01:35:51;;;;;;;0.93;0.90;;;;;;;4.87;93.69;98461.13;5094691;28;20402;-72
2023/12/13 01:38:20;;;;;;;1.45;1.20;;;;;;;4.85;93.56;98455.22;5095792;28;20066;-72
2023/12/13 01:40:52;;;;;;;1.20;1.10;;;;;;;4.80;93.90;98440.03;5095147;28;20398;-72
2023/12/13 01:43:42;;;;;;;0.50;0.50;;;;;;;4.90;94.20;98443.41;5093979;28;20501;-72
2023/12/13 01:46:14;;;;;;;0.40;0.40;;;;;;;4.91;94.20;98445.97;5095217;28;20053;-72
2023/12/13 01:48:43;;;;;;;0.88;0.88;;;;;;;4.90;94.26;98441.75;5095152;28;20405;-72
2023/12/13 01:51:13;;;;;;;1.13;1.02;;;;;;;4.92;94.46;98437.53;5095135;28;20046;-72
2023/12/13 01:53:43;;;;;;;0.52;0.52;;;;;;;4.93;94.41;98439.22;5095114;28;20082;-72
2023/12/13 01:56:13;;;;;;;3.22;2.22;;;;;;;4.95;94.70;98441.75;5094850;28;20044;-72
2023/12/13 01:58:43;;;;;;;0.45;0.43;;;;;;;4.95;94.69;98440.06;5094927;28;20142;-72
2023/12/13 02:01:12;;;;;;;1.48;1.33;;;;;;;4.96;94.75;98444.28;5093868;28;20492;-72
2023/12/13 02:03:43;;;;;;;0.77;0.77;;;;;;;4.94;94.88;98435.88;5093493;28;20122;-72
2023/12/13 02:06:12;;;;;;;0.63;0.40;;;;;;;4.81;94.76;98413.94;5093434;28;20036;-71
2023/12/13 02:08:41;;;;;;;0.50;0.50;;;;;;;4.97;94.87;98438.38;5094441;28;20040;-71
2023/12/13 02:11:10;;;;;;;0.60;0.60;;;;;;;4.96;95.26;98434.19;5094432;28;20135;-72
2023/12/13 02:13:39;;;;;;;1.00;0.98;;;;;;;4.97;95.33;98425.75;5094620;28;20284;-72
2023/12/13 02:16:10;;;;;;;0.70;0.70;;;;;;;4.93;95.40;98423.22;5094703;28;20044;-72
2023/12/13 02:18:38;;;;;;;4.45;2.53;;;;;;;4.97;95.18;98423.22;5094596;28;20036;-72
2023/12/13 02:21:08;;;;;;;0.57;0.40;;;;;;;4.98;95.36;98424.91;5094532;28;20040;-72
2023/12/13 02:23:38;;;;;;;0.90;0.90;;;;;;;4.99;95.17;98419.00;5094498;28;20123;-72
2023/12/13 02:26:10;;;;;;;0.32;0.32;;;;;;;5.01;95.36;98409.75;5094688;28;20048;-72
2023/12/13 02:28:38;;;;;;;0.40;0.40;;;;;;;5.03;95.79;98410.59;5093124;28;20051;-72
2023/12/13 02:31:09;;;;;;;2.90;1.50;;;;;;;5.02;95.81;98398.78;5094060;28;20051;-71
2023/12/13 02:33:40;;;;;;;0.30;0.30;;;;;;;5.03;95.49;98390.38;5094396;28;20036;-72
2023/12/13 02:36:09;;;;;;;0.73;0.73;;;;;;;5.03;95.63;98385.31;5092994;28;20432;-72
2023/12/13 02:38:41;;;;;;;0.80;0.80;;;;;;;5.04;96.20;98376.88;5094225;28;20036;-72
2023/12/13 02:41:10;;;;;;;1.30;1.20;;;;;;;4.80;96.09;98333.88;5093137;28;20040;-72
2023/12/13 02:43:38;;;;;;;4.43;1.20;;;;;;;5.06;96.10;98381.94;5094229;28;20052;-72
2023/12/13 02:46:07;;;;;;;2.63;2.43;;;;;;;5.04;96.00;98374.34;5093737;28;20036;-72
2023/12/13 02:48:36;;;;;;;3.03;2.47;;;;;;;5.00;96.07;98370.13;5093889;28;20661;-72
2023/12/13 02:51:06;;;;;;;3.13;1.02;;;;;;;5.05;96.21;98372.66;5092694;28;20056;-72
2023/12/13 02:53:35;;;;;;;0.60;0.60;;;;;;;5.04;96.34;98376.03;5094114;28;20048;-72
2023/12/13 02:56:06;;;;;;;1.35;1.25;;;;;;;5.05;96.10;98367.59;5094025;28;20058;-72
2023/12/13 02:58:34;;;;;;;0.55;0.55;;;;;;;5.02;96.43;98367.59;5094215;28;20532;-72
2023/12/13 03:01:03;;;;;;;1.10;1.00;;;;;;;4.99;96.41;98362.56;5094017;28;20067;-72
2023/12/13 03:03:32;;;;;;;1.55;1.45;;;;;;;4.96;95.96;98357.50;5093637;28;20133;-72
2023/12/13 03:06:01;;;;;;;0.60;0.60;;;;;;;4.91;96.37;98349.06;5093629;28;20486;-72
2023/12/13 03:08:30;;;;;;;1.08;1.05;;;;;;;4.88;96.34;98349.06;5093494;28;20033;-72
2023/12/13 03:10:59;;;;;;;0.63;0.57;;;;;;;4.84;96.42;98343.19;5093871;28;20490;-72
2023/12/13 03:13:29;;;;;;;1.13;1.03;;;;;;;4.83;96.39;98336.44;5093529;28;20032;-72
2023/12/13 03:15:58;;;;;;;1.08;0.98;;;;;;;4.61;96.42;98290.09;5093852;28;20295;-72
2023/12/13 03:18:27;;;;;;;1.50;0.85;;;;;;;4.81;96.38;98333.06;5093671;28;20036;-72
2023/12/13 03:20:55;;;;;;;2.60;1.30;;;;;;;4.80;96.51;98331.38;5093858;28;20036;-72
2023/12/13 03:23:24;;;;;;;1.42;1.33;;;;;;;4.80;96.51;98336.41;5093806;28;20276;-71
2023/12/13 03:25:53;;;;;;;0.77;0.77;;;;;;;4.81;96.55;98338.13;5093990;28;20040;-72
2023/12/13 03:28:22;;;;;;;1.08;0.98;;;;;;;4.83;96.71;98330.53;5093299;28;20054;-72
2023/12/13 03:30:52;;;;;;;1.47;1.37;;;;;;;4.82;96.76;98319.59;5093235;28;20486;-72
2023/12/13 03:33:21;;;;;;;5.35;1.15;;;;;;;4.82;96.51;98323.81;5094006;28;20040;-72
2023/12/13 03:35:50;;;;;;;1.70;1.60;;;;;;;4.74;96.66;98299.38;5093933;28;20047;-72
2023/12/13 03:38:19;;;;;;;0.80;0.80;;;;;;;4.83;96.67;98311.16;5093648;28;20284;-72
2023/12/13 03:40:47;;;;;;;1.63;1.48;;;;;;;4.86;96.43;98316.22;5093802;28;20105;-72
2023/12/13 03:43:16;;;;;;;2.03;1.93;;;;;;;4.86;96.91;98308.63;5093699;28;20032;-72
2023/12/13 03:45:45;;;;;;;4.13;2.23;;;;;;;4.87;97.02;98309.47;5093614;28;20040;-72
2023/12/13 03:48:15;;;;;;;3.30;3.00;;;;;;;4.73;96.77;98276.63;5093323;28;20032;-72
2023/12/13 03:50:44;;;;;;;1.65;0.93;;;;;;;4.88;96.89;98304.41;5093536;28;20039;-72
2023/12/13 03:53:13;;;;;;;1.23;1.13;;;;;;;4.89;97.19;98311.16;5093519;28;20553;-72
2023/12/13 03:55:42;;;;;;;1.90;1.43;;;;;;;4.89;97.17;98306.13;5093449;28;20048;-72
2023/12/13 03:58:10;;;;;;;1.33;1.07;;;;;;;4.89;97.28;98311.16;5094717;28;20050;-72
2023/12/13 04:00:40;;;;;;;1.80;1.08;;;;;;;4.89;97.06;98305.25;5095925;28;20304;-72
2023/12/13 04:03:09;;;;;;;8.87;8.37;;;;;;;4.90;97.19;98306.94;5097771;28;20139;-72
2023/12/13 04:05:39;;;;;;;1.35;1.25;;;;;;;4.89;97.08;98303.59;5096214;28;20036;-72
2023/12/13 04:08:08;;;;;;;12.95;2.20;;;;;;;4.86;97.05;98298.53;5096905;28;20159;-72
2023/12/13 04:10:37;;;;;;;0.77;0.77;;;;;;;4.83;97.00;98285.88;5096806;28;20055;-72
2023/12/13 04:13:06;;;;;;;1.17;1.10;;;;;;;4.84;97.09;98292.63;5097240;28;20028;-72
2023/12/13 04:15:35;;;;;;;1.52;1.42;;;;;;;4.83;97.34;98280.81;5096034;28;20043;-72
2023/12/13 04:18:04;;;;;;;0.33;0.33;;;;;;;4.85;97.40;98279.13;5095616;28;20052;-72
2023/12/13 04:20:33;;;;;;;4.20;1.42;;;;;;;4.83;97.49;98280.81;5096558;28;20036;-72
2023/12/13 04:23:05;;;;;;;4.30;2.17;;;;;;;4.84;97.57;98282.53;5096832;28;20040;-72
2023/12/13 04:25:33;;;;;;;0.43;0.43;;;;;;;4.85;97.52;98271.56;5096840;28;20311;-72
2023/12/13 04:28:02;;;;;;;1.63;1.53;;;;;;;4.84;97.51;98264.84;5096727;28;20032;-72
2023/12/13 04:30:31;;;;;;;;;;;;;;;4.84;97.39;98272.41;5096493;28;20402;-72
2023/12/13 04:33:00;;;;;;;0.40;0.40;;;;;;;4.84;97.32;98279.16;5096656;28;19924;-72
2023/12/13 04:35:32;;;;;;;0.90;0.87;;;;;;;4.82;97.40;98276.63;5096846;28;20040;-72
2023/12/13 04:38:01;;;;;;;0.25;0.25;;;;;;;4.82;97.58;98279.16;5096548;28;20046;-72
2023/12/13 04:40:31;;;;;;;0.60;0.60;;;;;;;4.82;97.80;98284.22;5096188;28;20131;-72
2023/12/13 04:43:00;;;;;;;0.38;0.38;;;;;;;4.82;97.59;98279.16;5096450;28;20108;-72
2023/12/13 04:45:29;;;;;;;2.10;1.95;;;;;;;4.83;97.68;98275.78;5096369;28;20047;-72
2023/12/13 04:47:58;;;;;;;4.38;3.97;;;;;;;4.74;97.91;98260.63;5096170;28;20032;-72
2023/12/13 04:50:27;;;;;;;2.78;2.58;;;;;;;4.84;97.80;98277.47;5095105;28;20040;-72
2023/12/13 04:52:56;;;;;;;9.82;8.43;;;;;;;4.80;97.45;98263.13;5096095;28;20043;-72
2023/12/13 04:55:25;;;;;;;10.33;7.20;;;;;;;4.84;97.57;98267.38;5096164;28;20040;-72
2023/12/13 04:57:55;;;;;;;11.00;6.30;;;;;;;4.84;97.29;98267.38;5096076;28;20089;-72
2023/12/13 05:00:24;;;;;;;5.13;4.18;;;;;;;4.86;97.73;98262.28;5096095;28;20618;-72
2023/12/13 05:02:53;;;;;;;3.13;2.90;;;;;;;4.87;97.80;98267.34;5095978;28;20379;-72
2023/12/13 05:05:22;;;;;;;5.38;3.30;;;;;;;4.89;97.98;98270.72;5095750;28;20043;-72
2023/12/13 05:07:50;;;;;;;1.23;1.13;;;;;;;4.89;97.96;98270.72;5095831;28;20044;-72
2023/12/13 05:10:19;;;;;;;0.90;0.90;;;;;;;4.91;97.96;98269.03;5093720;28;20277;-72
2023/12/13 05:12:48;;;;;;;1.20;1.08;;;;;;;4.92;98.06;98265.66;5094566;28;20036;-72
2023/12/13 05:15:19;;;;;;;1.77;0.67;;;;;;;4.91;98.12;98256.41;5094820;28;20418;-72
2023/12/13 05:17:47;;;;;;;0.63;0.63;;;;;;;4.93;97.85;98261.44;5094934;28;20040;-72
2023/12/13 05:20:16;;;;;;;1.03;0.73;;;;;;;4.93;98.11;98247.13;5095978;28;20036;-72
2023/12/13 05:22:45;;;;;;;0.93;0.93;;;;;;;4.93;98.16;98257.22;5095554;28;20046;-72
2023/12/13 05:25:14;;;;;;;0.50;0.50;;;;;;;4.94;97.85;98260.59;5095592;28;20068;-72
2023/12/13 05:27:44;;;;;;;0.85;0.85;;;;;;;4.94;98.09;98258.94;5095436;28;20107;-72
2023/12/13 05:30:13;;;;;;;0.80;0.80;;;;;;;4.95;98.35;98254.69;5094102;28;21180;-73
2023/12/13 05:32:44;;;;;;;1.25;0.85;;;;;;;4.95;97.88;98260.59;5095319;28;20044;-72
2023/12/13 05:35:13;;;;;;;1.88;1.77;;;;;;;4.93;98.24;98252.19;5095997;28;20484;-72
2023/12/13 05:37:42;;;;;;;2.97;1.97;;;;;;;4.91;98.07;98248.81;5095416;28;20123;-72
2023/12/13 05:40:12;;;;;;;2.58;1.95;;;;;;;4.89;98.31;98259.78;5095324;28;20288;-72
2023/12/13 05:42:41;;;;;;;0.47;0.47;;;;;;;4.88;98.46;98263.13;5095020;28;20491;-72
2023/12/13 05:45:11;;;;;;;0.75;0.75;;;;;;;4.85;98.22;98258.91;5093934;28;20036;-72
2023/12/13 05:47:39;;;;;;;1.05;1.05;;;;;;;4.83;98.39;98258.09;5095048;28;20046;-72
2023/12/13 05:50:10;;;;;;;0.80;0.80;;;;;;;4.82;97.81;98253.88;5095125;28;20032;-72
2023/12/13 05:52:40;;;;;;;1.98;1.77;;;;;;;4.83;98.17;98255.56;5095060;28;20097;-72
2023/12/13 05:55:09;;;;;;;1.10;1.02;;;;;;;4.84;98.45;98247.16;5094829;28;20405;-72
2023/12/13 05:57:38;;;;;;;0.95;0.93;;;;;;;4.86;98.35;98249.66;5095222;28;20383;-72
2023/12/13 06:00:08;;;;;;;0.47;0.47;;;;;;;4.87;98.23;98252.16;5094949;28;20033;-72
2023/12/13 06:02:40;;;;;;;0.77;0.75;;;;;;;4.88;98.22;98243.75;5094927;28;20509;-72
2023/12/13 06:05:25;;;;;;;1.08;1.00;;;;;;;4.85;98.41;98233.66;5094802;28;20504;-72
2023/12/13 06:07:55;;;;;;;0.82;0.82;;;;;;;4.90;98.57;98239.53;5095243;28;20051;-72
2023/12/13 06:10:24;;;;;;;0.65;0.65;;;;;;;4.90;98.21;98244.59;5094778;28;20043;-72
2023/12/13 06:12:53;;;;;;;0.60;0.60;;;;;;;4.90;98.48;98252.19;5094797;28;20043;-72
2023/12/13 06:15:22;;;;;;;1.90;1.80;;;;;;;4.89;98.41;98240.41;5094555;28;20040;-72
2023/12/13 06:17:51;;;;;;;1.20;1.10;;;;;;;4.90;98.46;98247.13;5094610;28;20134;-72
2023/12/13 06:20:20;;;;;;;0.40;0.40;;;;;;;4.91;98.18;98248.81;5094228;28;20063;-72
2023/12/13 06:22:50;;;;;;;0.83;0.77;;;;;;;4.91;98.44;98248.81;5094474;28;20540;-72
2023/12/13 06:25:19;;;;;;;0.30;0.30;;;;;;;4.90;98.34;98239.53;5094163;28;20055;-72
2023/12/13 06:27:48;;;;;;;0.82;0.82;;;;;;;4.90;98.57;98241.22;5094466;28;20036;-72
2023/12/13 06:30:18;;;;;;;1.25;1.15;;;;;;;4.90;98.48;98237.00;5092654;28;20121;-72
2023/12/13 06:32:47;;;;;;;1.13;1.02;;;;;;;4.90;98.51;98242.06;5094376;28;20093;-72
2023/12/13 06:35:16;;;;;;;1.02;0.93;;;;;;;4.91;98.50;98248.81;5094592;28;20524;-72
2023/12/13 06:37:45;;;;;;;0.45;0.45;;;;;;;4.83;98.83;98230.28;5094020;28;20044;-72
2023/12/13 06:40:16;;;;;;;1.17;1.08;;;;;;;4.90;98.57;98242.06;5092815;28;20131;-72
2023/12/13 06:42:45;;;;;;;1.23;1.15;;;;;;;4.91;98.09;98243.75;5094143;28;20150;-72
2023/12/13 06:45:14;;;;;;;0.65;0.65;;;;;;;4.81;98.75;98226.91;5094126;28;20097;-72
2023/12/13 06:47:43;;;;;;;1.83;1.73;;;;;;;4.76;98.76;98218.50;5092935;28;20410;-72
2023/12/13 06:50:11;;;;;;;3.55;3.25;;;;;;;4.89;98.40;98235.34;5093802;28;20288;-72
2023/12/13 06:52:40;;;;;;;2.10;1.85;;;;;;;4.91;98.20;98242.91;5093926;28;20036;-72
2023/12/13 06:55:09;;;;;;;1.17;1.10;;;;;;;4.90;98.50;98239.53;5094105;28;20040;-72
2023/12/13 06:57:39;;;;;;;2.83;2.63;;;;;;;4.91;98.42;98243.75;5093868;28;20040;-72
2023/12/13 07:00:09;;;;;;;8.55;2.80;;;;;;;4.93;98.60;98239.53;5093728;28;20398;-71
2023/12/13 07:02:39;;;;;;;3.25;2.78;;;;;;;4.94;98.31;98228.59;5093626;28;20452;-72
2023/12/13 07:05:10;;;;;;;9.73;8.35;;;;;;;4.96;98.60;98231.09;5093554;28;20502;-71
2023/12/13 07:07:39;;;;;;;13.25;7.90;;;;;;;4.90;98.50;98221.84;5092948;28;20052;-71
2023/12/13 07:10:08;;;;;;;10.17;9.47;;;;;;;4.96;98.58;98236.16;5092526;28;20040;-72
2023/12/13 07:12:40;;;;;;;1.17;0.98;;;;;;;4.88;98.29;98226.06;5093883;28;20074;-71
2023/12/13 07:15:12;;;;;;;4.15;1.45;;;;;;;4.98;98.30;98237.00;5104406;28;20374;-72
2023/12/13 07:17:42;;;;;;;3.53;0.80;;;;;;;4.97;98.57;98226.03;5114215;28;20067;-72
2023/12/13 07:20:12;;;;;;;0.70;0.70;;;;;;;4.97;98.72;98223.50;5114160;28;20067;-71
2023/12/13 07:22:41;;;;;;;3.22;2.92;;;;;;;4.98;98.57;98225.22;5114233;28;20051;-72
2023/12/13 07:25:11;;;;;;;5.50;2.93;;;;;;;4.99;98.47;98221.00;5114091;28;20135;-71
2023/12/13 07:27:41;;;;;;;5.50;3.28;;;;;;;4.98;98.57;98215.09;5114442;28;20024;-72
2023/12/13 07:30:11;;;;;;;5.20;3.92;;;;;;;5.00;98.90;98215.94;5112229;28;20042;-72
2023/12/13 07:32:41;;;;;;;1.38;1.27;;;;;;;5.01;98.78;98215.09;5114521;28;20537;-72
2023/12/13 07:35:11;;;;;;;1.27;1.08;;;;;;;5.02;98.77;98221.81;5117930;28;20055;-71
2023/12/13 07:37:40;;;;;;;1.98;1.52;;;;;;;5.04;98.66;98214.25;5118085;28;20043;-72
2023/12/13 07:40:09;;;;;;;0.40;0.40;;;;;;;5.07;98.61;98210.00;5118015;28;20066;-72
2023/12/13 07:42:38;;;;;;;;;;;;;;;5.07;98.77;98204.94;5118353;28;20789;-72
2023/12/13 07:45:11;;;;;;;0.83;0.83;;;;;;;5.07;98.91;98204.94;5117950;28;19924;-72
2023/12/13 07:47:40;;;;;;;5.38;2.30;;;;;;;5.06;98.77;98193.16;5117572;28;20054;-71
2023/12/13 07:50:09;;;;;;;2.03;1.93;;;;;;;5.09;99.00;98193.16;5117431;28;20045;-72
2023/12/13 07:52:38;;;;;;;3.38;3.03;;;;;;;5.11;98.81;98191.44;5117779;28;20043;-72
2023/12/13 07:55:08;;;;;;;3.13;1.77;;;;;;;5.12;98.88;98188.09;5117693;28;20050;-71
2023/12/13 07:57:36;;;;;;;7.80;2.90;;;;;;;5.13;98.96;98189.78;5117715;28;20126;-72
2023/12/13 08:00:08;;;;;;;2.23;1.83;;;;;;;5.13;98.61;98189.78;5117539;28;20044;-71
2023/12/13 08:02:41;;;;;;;1.00;0.93;;;;;;;5.14;98.95;98196.50;5117741;28;20046;-72
2023/12/13 08:05:16;;;;;;;3.17;1.50;;;;;;;5.16;98.61;98199.03;5117839;28;20486;-72
2023/12/13 08:07:46;;;;;;;3.35;2.70;;;;;;;5.14;99.00;98191.44;5117799;28;20050;-72
2023/12/13 08:10:15;;;;;;;0.93;0.90;;;;;;;5.17;98.71;98206.63;5117327;28;20043;-72
2023/12/13 08:12:43;;;;;;;3.25;2.67;;;;;;;5.16;98.77;98199.88;5117535;28;20059;-72
2023/12/13 08:15:12;;;;;;;2.03;1.80;;;;;;;5.17;98.91;98199.03;5116099;28;20047;-71
2023/12/13 08:17:43;;;;;;;1.58;1.48;;;;;;;5.19;99.05;98204.06;5117326;28;20127;-72
2023/12/13 08:20:12;;;;;;;0.43;0.43;;;;;;;5.19;98.95;98209.97;5117385;28;20085;-71
2023/12/13 08:22:41;;;;;;;1.02;0.93;;;;;;;5.19;98.71;98204.06;5116819;28;20093;-71
2023/12/13 08:25:10;;;;;;;1.13;1.05;;;;;;;5.19;98.95;98209.13;5116897;28;20044;-72
2023/12/13 08:27:38;;;;;;;1.17;1.10;;;;;;;5.17;98.85;98211.69;5117325;28;20089;-72
2023/12/13 08:30:09;;;;;;;0.77;0.77;;;;;;;5.18;98.81;98208.28;5116760;28;20047;-73
2023/12/13 08:32:38;;;;;;;1.98;1.27;;;;;;;5.20;98.96;98200.72;5117050;28;20039;-72
2023/12/13 08:35:09;;;;;;;0.77;0.73;;;;;;;5.21;98.63;98212.50;5116831;28;20040;-72
2023/12/13 08:37:38;;;;;;;1.73;1.63;;;;;;;5.22;98.99;98214.19;5116858;28;20049;-72
2023/12/13 08:40:08;;;;;;;2.40;2.15;;;;;;;5.09;98.74;98192.31;5115587;28;20054;-73
2023/12/13 08:42:37;;;;;;;1.80;1.67;;;;;;;5.23;98.75;98226.81;5116743;28;20043;-72
2023/12/13 08:45:13;;;;;;;2.13;1.95;;;;;;;5.20;98.89;98211.66;5115383;28;20146;-72
2023/12/13 08:47:42;;;;;;;1.75;1.65;;;;;;;5.22;98.94;98215.03;5116681;28;20100;-71
2023/12/13 08:50:14;;;;;;;1.60;1.45;;;;;;;5.22;99.04;98220.09;5115320;28;20126;-72
2023/12/13 08:52:43;;;;;;;1.23;1.13;;;;;;;5.21;98.67;98203.22;5116665;28;20059;-72
2023/12/13 08:55:12;;;;;;;1.27;1.17;;;;;;;5.26;98.92;98209.09;5115325;28;20074;-72
2023/12/13 08:57:40;;;;;;;5.50;2.45;;;;;;;5.26;98.99;98211.63;5116452;28;20555;-72
2023/12/13 09:00:10;;;;;;;4.93;2.85;;;;;;;5.26;98.69;98216.69;5115293;28;20097;-72
2023/12/13 09:02:40;;;;;;;1.70;1.60;;;;;;;5.27;99.26;98217.53;5116256;28;20440;-72
2023/12/13 09:05:09;;;;;;;1.67;1.58;;;;;;;5.19;99.26;98202.38;5116012;28;20047;-72
2023/12/13 09:07:39;;;;;;;1.60;1.50;;;;;;;5.28;98.98;98209.94;5115333;28;20054;-72
2023/12/13 09:10:09;;;;;;;1.13;1.02;;;;;;;5.30;99.34;98218.34;5114704;28;20039;-72
2023/12/13 09:12:38;;;;;;;;;;;;;;;5.31;99.37;98215.00;5115448;28;20051;-72
2023/12/13 09:15:07;;;;;;;1.27;1.20;;;;;;;5.33;98.71;98218.34;5115186;28;19919;-72
2023/12/13 09:17:37;;;;;;;2.13;1.80;;;;;;;5.32;99.32;98219.22;5114878;28;20035;-72
2023/12/13 09:20:09;;;;;;;1.52;1.42;;;;;;;5.33;98.95;98213.28;5115977;28;20047;-72
2023/12/13 09:22:40;;;;;;;4.07;1.33;;;;;;;5.33;98.97;98210.75;5115744;28;20160;-72
2023/12/13 09:25:10;;;;;;;0.50;0.50;;;;;;;5.33;98.93;98214.97;5114725;28;20401;-72
2023/12/13 09:27:39;;;;;;;2.42;2.22;;;;;;;5.33;99.23;98208.22;5115592;28;20047;-72
2023/12/13 09:30:11;;;;;;;1.37;1.30;;;;;;;5.31;99.04;98201.50;5115592;28;20039;-72
2023/12/13 09:32:41;;;;;;;1.27;0.95;;;;;;;5.37;99.33;98204.84;5115556;28;20047;-72
2023/12/13 09:35:13;;;;;;;0.82;0.82;;;;;;;5.36;99.23;98198.13;5115846;28;20047;-72
2023/12/13 09:37:43;;;;;;;4.07;1.95;;;;;;;5.42;99.51;98194.72;5114756;28;20092;-72
2023/12/13 09:40:16;;;;;;;2.22;1.92;;;;;;;5.41;99.19;98201.47;5115895;28;20044;-72
2023/12/13 09:42:46;;;;;;;2.45;1.85;;;;;;;5.38;99.01;98196.41;5116020;27;20131;-72
2023/12/13 09:45:20;;;;;;;1.40;1.30;;;;;;;5.39;99.36;98203.16;5115772;27;20043;-72
2023/12/13 09:47:53;;;;;;;13.15;1.67;;;;;;;5.38;99.55;98196.41;5115290;28;20497;-72
2023/12/13 09:50:23;;;;;;;0.43;0.43;;;;;;;5.38;99.03;98196.41;5114099;28;20044;-72
2023/12/13 09:52:55;;;;;;;1.92;1.80;;;;;;;5.33;99.16;98177.88;5112072;28;20039;-73
2023/12/13 09:55:24;;;;;;;1.55;1.45;;;;;;;5.39;99.10;98193.06;5093694;28;20060;-72
2023/12/13 09:57:58;;;;;;;2.08;1.88;;;;;;;5.35;99.23;98180.44;5093077;28;20068;-73
2023/12/13 10:00:26;;;;;;;1.17;1.08;;;;;;;5.39;98.85;98193.06;5093439;28;20051;-72
2023/12/13 10:02:55;;;;;;;1.53;1.43;;;;;;;5.37;99.15;98184.59;5093280;28;20042;-72
2023/12/13 10:05:25;;;;;;;1.47;1.37;;;;;;;5.35;99.31;98175.38;5093499;28;20273;-72
2023/12/13 10:08:02;;;;;;;1.13;0.98;;;;;;;5.39;99.14;98185.47;5094823;28;20509;-72
2023/12/13 10:10:32;;;;;;;0.60;0.60;;;;;;;5.33;99.15;98152.59;5094690;28;20043;-72
2023/12/13 10:13:02;;;;;;;3.20;2.22;;;;;;;5.37;99.24;98169.44;5094254;28;20378;-72
2023/12/13 10:15:31;;;;;;;1.35;1.25;;;;;;;5.35;98.99;98166.06;5092941;28;20044;-73
2023/12/13 10:18:01;;;;;;;1.65;1.25;;;;;;;5.37;98.89;98174.47;5093144;28;20028;-72
2023/12/13 10:20:31;;;;;;;0.60;0.60;;;;;;;5.40;99.20;98169.41;5092247;28;20529;-72
2023/12/13 10:23:04;;;;;;;1.02;0.93;;;;;;;5.40;98.92;98149.19;5093651;28;20044;-72
2023/12/13 10:25:33;;;;;;;0.30;0.30;;;;;;;5.45;98.96;98153.41;5103003;28;20047;-72
2023/12/13 10:28:04;;;;;;;1.40;1.30;;;;;;;5.46;98.89;98153.38;5102088;28;20039;-73
2023/12/13 10:30:34;;;;;;;1.27;1.17;;;;;;;5.45;98.79;98151.69;5100867;28;20067;-72
2023/12/13 10:33:02;;;;;;;0.68;0.68;;;;;;;5.43;98.84;98148.34;5094038;28;20067;-72
2023/12/13 10:35:33;;;;;;;1.63;1.35;;;;;;;5.39;99.24;98144.16;5094290;28;20075;-72
2023/12/13 10:38:04;;;;;;;2.03;1.90;;;;;;;5.36;98.65;98141.63;5101177;28;20450;-72
2023/12/13 10:40:33;;;;;;;2.00;1.10;;;;;;;5.40;99.21;98144.13;5114586;28;20047;-72
2023/12/13 10:43:04;;;;;;;2.23;2.00;;;;;;;5.42;99.15;98147.47;5114628;28;20066;-72
2023/12/13 10:45:33;;;;;;;1.58;1.30;;;;;;;5.42;98.63;98134.84;5094467;28;20482;-72
2023/12/13 10:48:07;;;;;;;0.40;0.40;;;;;;;5.39;98.48;98131.50;5094378;28;20400;-72
2023/12/13 10:50:37;;;;;;;1.25;1.15;;;;;;;5.40;98.76;98134.00;5094015;28;20063;-72
2023/12/13 10:53:08;;;;;;;0.60;0.60;;;;;;;5.39;98.70;98131.50;5094030;28;20122;-72
2023/12/13 10:55:39;;;;;;;1.75;1.65;;;;;;;5.36;99.10;98137.41;5094379;28;20052;-72
2023/12/13 10:58:08;;;;;;;0.90;0.90;;;;;;;5.38;98.96;98130.66;5093703;28;20048;-73
2023/12/13 11:00:38;;;;;;;2.03;1.43;;;;;;;5.36;98.56;98122.22;5099708;28;20036;-73
2023/12/13 11:03:12;;;;;;;0.80;0.80;;;;;;;5.41;98.75;98138.22;5093952;28;20059;-73
2023/12/13 11:05:41;;;;;;;3.38;2.15;;;;;;;5.42;99.03;98127.25;5093920;28;20040;-73
2023/12/13 11:08:19;;;;;;;1.95;0.93;;;;;;;5.43;98.77;98118.81;5091673;28;20040;-72
2023/12/13 11:11:02;;;;;;;1.90;1.38;;;;;;;5.48;98.57;98116.25;5092582;28;20047;-73
2023/12/13 11:13:32;;;;;;;1.38;1.23;;;;;;;5.53;98.90;98106.13;5098839;28;20494;-73
2023/12/13 11:16:01;;;;;;;1.45;1.35;;;;;;;5.52;98.52;98107.78;5102461;28;20032;-73
2023/12/13 11:18:32;;;;;;;1.08;0.98;;;;;;;5.53;98.58;98113.69;5102986;28;20027;-73
2023/12/13 11:21:06;;;;;;;0.40;0.40;;;;;;;5.55;98.96;98106.94;5101195;28;20036;-72
2023/12/13 11:23:39;;;;;;;2.15;1.30;;;;;;;5.31;98.30;98073.38;5101969;28;20135;-73
2023/12/13 11:26:15;;;;;;;3.40;1.88;;;;;;;5.56;98.55;98113.69;5093675;28;20032;-73
2023/12/13 11:28:49;;;;;;;1.67;1.58;;;;;;;5.60;98.73;98111.13;5093284;28;20482;-73
2023/12/13 11:31:22;;;;;;;2.28;1.95;;;;;;;5.63;98.89;98120.41;5092113;28;20059;-73
2023/12/13 11:33:54;;;;;;;1.00;0.77;;;;;;;5.65;98.41;98118.69;5093552;28;20601;-73
2023/12/13 11:36:25;;;;;;;1.35;1.25;;;;;;;5.67;98.84;98120.34;5093384;28;20072;-73
2023/12/13 11:38:56;;;;;;;1.35;1.23;;;;;;;5.66;98.46;98110.25;5092413;28;20040;-73
2023/12/13 11:41:25;;;;;;;1.55;1.45;;;;;;;5.65;98.62;98108.56;5093745;28;20090;-73
2023/12/13 11:43:54;;;;;;;1.80;1.70;;;;;;;5.65;98.24;98093.38;5093635;28;20036;-73
2023/12/13 11:46:25;;;;;;;4.32;2.58;;;;;;;5.67;98.40;98096.75;5093355;28;20036;-73
2023/12/13 11:48:54;;;;;;;2.10;1.70;;;;;;;5.67;98.33;98091.69;5094051;28;20558;-73
2023/12/13 11:51:23;;;;;;;2.70;2.50;;;;;;;5.73;98.57;98081.53;5093294;28;20087;-73
2023/12/13 11:53:52;;;;;;;1.80;1.15;;;;;;;5.75;98.53;98085.72;5093159;28;20063;-74